sensor_id;sensor_type;location;lat;lon;timestamp;P1;durP1;ratioP1;P2;durP2;ratioP2
35839;SDS011;35514;50.504;30.500;2023-04-19T00:02:20;8.27;;;3.28;;
35839;SDS011;35514;50.504;30.500;2023-04-19T00:04:48;11.07;;;3.13;;
35839;SDS011;35514;50.504;30.500;2023-04-19T00:07:17;6.93;;;2.80;;
35839;SDS011;35514;50.504;30.500;2023-04-19T00:09:45;7.28;;;2.70;;
35839;SDS011;35514;50.504;30.500;2023-04-19T00:12:13;5.60;;;2.70;;
35839;SDS011;35514;50.504;30.500;2023-04-19T00:14:40;14.35;;;4.18;;
35839;SDS011;35514;50.504;30.500;2023-04-19T00:17:08;9.35;;;3.00;;
35839;SDS011;35514;50.504;30.500;2023-04-19T00:19:36;9.70;;;3.05;;
35839;SDS011;35514;50.504;30.500;2023-04-19T00:22:04;13.43;;;3.60;;
35839;SDS011;35514;50.504;30.500;2023-04-19T00:24:33;6.70;;;3.40;;
35839;SDS011;35514;50.504;30.500;2023-04-19T00:27:01;5.82;;;2.50;;
35839;SDS011;35514;50.504;30.500;2023-04-19T00:29:29;8.93;;;2.78;;
35839;SDS011;35514;50.504;30.500;2023-04-19T00:31:57;4.43;;;2.40;;
35839;SDS011;35514;50.504;30.500;2023-04-19T00:34:24;7.95;;;2.53;;
35839;SDS011;35514;50.504;30.500;2023-04-19T00:36:52;3.95;;;2.30;;
35839;SDS011;35514;50.504;30.500;2023-04-19T00:39:20;9.50;;;3.25;;
35839;SDS011;35514;50.504;30.500;2023-04-19T00:41:49;8.82;;;2.35;;
35839;SDS011;35514;50.504;30.500;2023-04-19T00:44:18;4.57;;;2.60;;
35839;SDS011;35514;50.504;30.500;2023-04-19T00:46:46;5.38;;;2.38;;
35839;SDS011;35514;50.504;30.500;2023-04-19T00:49:15;4.15;;;2.03;;
35839;SDS011;35514;50.504;30.500;2023-04-19T00:51:43;6.00;;;2.72;;
35839;SDS011;35514;50.504;30.500;2023-04-19T00:54:11;5.53;;;2.72;;
35839;SDS011;35514;50.504;30.500;2023-04-19T00:56:39;4.68;;;2.42;;
35839;SDS011;35514;50.504;30.500;2023-04-19T00:59:09;8.75;;;2.65;;
35839;SDS011;35514;50.504;30.500;2023-04-19T01:01:37;5.53;;;2.28;;
35839;SDS011;35514;50.504;30.500;2023-04-19T01:04:05;7.65;;;2.58;;
35839;SDS011;35514;50.504;30.500;2023-04-19T01:06:33;7.55;;;2.58;;
35839;SDS011;35514;50.504;30.500;2023-04-19T01:09:00;9.05;;;3.40;;
35839;SDS011;35514;50.504;30.500;2023-04-19T01:11:28;7.45;;;2.22;;
35839;SDS011;35514;50.504;30.500;2023-04-19T01:13:56;7.03;;;2.70;;
35839;SDS011;35514;50.504;30.500;2023-04-19T01:16:25;3.75;;;2.63;;
35839;SDS011;35514;50.504;30.500;2023-04-19T01:18:53;7.05;;;3.05;;
35839;SDS011;35514;50.504;30.500;2023-04-19T01:21:21;5.53;;;2.35;;
35839;SDS011;35514;50.504;30.500;2023-04-19T01:23:56;8.95;;;2.67;;
35839;SDS011;35514;50.504;30.500;2023-04-19T01:26:24;8.90;;;2.28;;
35839;SDS011;35514;50.504;30.500;2023-04-19T01:28:51;4.78;;;2.40;;
35839;SDS011;35514;50.504;30.500;2023-04-19T01:31:19;5.18;;;2.08;;
35839;SDS011;35514;50.504;30.500;2023-04-19T01:33:47;4.85;;;2.30;;
35839;SDS011;35514;50.504;30.500;2023-04-19T01:36:14;8.07;;;2.25;;
35839;SDS011;35514;50.504;30.500;2023-04-19T01:38:42;6.60;;;2.65;;
35839;SDS011;35514;50.504;30.500;2023-04-19T01:41:11;5.82;;;2.88;;
35839;SDS011;35514;50.504;30.500;2023-04-19T01:43:38;4.38;;;1.77;;
35839;SDS011;35514;50.504;30.500;2023-04-19T01:46:06;9.20;;;3.00;;
35839;SDS011;35514;50.504;30.500;2023-04-19T01:48:33;5.28;;;2.50;;
35839;SDS011;35514;50.504;30.500;2023-04-19T01:51:01;5.13;;;3.10;;
35839;SDS011;35514;50.504;30.500;2023-04-19T01:53:29;6.47;;;3.30;;
35839;SDS011;35514;50.504;30.500;2023-04-19T01:55:56;5.25;;;2.20;;
35839;SDS011;35514;50.504;30.500;2023-04-19T01:58:25;5.13;;;2.28;;
35839;SDS011;35514;50.504;30.500;2023-04-19T02:00:53;7.15;;;2.20;;
35839;SDS011;35514;50.504;30.500;2023-04-19T02:03:20;6.20;;;2.58;;
35839;SDS011;35514;50.504;30.500;2023-04-19T02:05:48;5.80;;;2.20;;
35839;SDS011;35514;50.504;30.500;2023-04-19T02:08:16;8.35;;;2.33;;
35839;SDS011;35514;50.504;30.500;2023-04-19T02:10:43;8.07;;;2.20;;
35839;SDS011;35514;50.504;30.500;2023-04-19T02:13:11;5.95;;;2.40;;
35839;SDS011;35514;50.504;30.500;2023-04-19T02:15:41;8.40;;;2.30;;
35839;SDS011;35514;50.504;30.500;2023-04-19T02:18:09;4.25;;;2.78;;
35839;SDS011;35514;50.504;30.500;2023-04-19T02:20:37;7.95;;;2.75;;
35839;SDS011;35514;50.504;30.500;2023-04-19T02:23:04;7.28;;;3.35;;
35839;SDS011;35514;50.504;30.500;2023-04-19T02:25:32;6.30;;;2.60;;
35839;SDS011;35514;50.504;30.500;2023-04-19T02:28:00;8.63;;;2.70;;
35839;SDS011;35514;50.504;30.500;2023-04-19T02:30:28;2.70;;;1.70;;
35839;SDS011;35514;50.504;30.500;2023-04-19T02:32:57;6.30;;;2.33;;
35839;SDS011;35514;50.504;30.500;2023-04-19T02:35:25;5.13;;;2.42;;
35839;SDS011;35514;50.504;30.500;2023-04-19T02:37:52;5.00;;;2.40;;
35839;SDS011;35514;50.504;30.500;2023-04-19T02:40:20;7.30;;;2.40;;
35839;SDS011;35514;50.504;30.500;2023-04-19T02:42:49;4.30;;;2.15;;
35839;SDS011;35514;50.504;30.500;2023-04-19T02:45:16;8.70;;;2.70;;
35839;SDS011;35514;50.504;30.500;2023-04-19T02:47:44;4.75;;;2.50;;
35839;SDS011;35514;50.504;30.500;2023-04-19T02:50:13;5.32;;;2.53;;
35839;SDS011;35514;50.504;30.500;2023-04-19T02:52:41;6.85;;;2.40;;
35839;SDS011;35514;50.504;30.500;2023-04-19T02:55:09;6.35;;;2.30;;
35839;SDS011;35514;50.504;30.500;2023-04-19T02:57:36;4.05;;;2.22;;
35839;SDS011;35514;50.504;30.500;2023-04-19T03:00:04;13.13;;;3.15;;
35839;SDS011;35514;50.504;30.500;2023-04-19T03:02:34;6.03;;;2.38;;
35839;SDS011;35514;50.504;30.500;2023-04-19T03:05:01;4.75;;;2.60;;
35839;SDS011;35514;50.504;30.500;2023-04-19T03:07:31;6.07;;;2.30;;
35839;SDS011;35514;50.504;30.500;2023-04-19T03:09:58;7.28;;;2.60;;
35839;SDS011;35514;50.504;30.500;2023-04-19T03:12:26;3.88;;;2.13;;
35839;SDS011;35514;50.504;30.500;2023-04-19T03:14:53;12.75;;;2.92;;
35839;SDS011;35514;50.504;30.500;2023-04-19T03:17:22;5.68;;;2.20;;
35839;SDS011;35514;50.504;30.500;2023-04-19T03:19:50;11.50;;;3.90;;
35839;SDS011;35514;50.504;30.500;2023-04-19T03:22:17;12.15;;;3.00;;
35839;SDS011;35514;50.504;30.500;2023-04-19T03:24:47;7.70;;;2.65;;
35839;SDS011;35514;50.504;30.500;2023-04-19T03:27:14;5.68;;;2.55;;
35839;SDS011;35514;50.504;30.500;2023-04-19T03:29:42;6.97;;;3.25;;
35839;SDS011;35514;50.504;30.500;2023-04-19T03:32:09;8.43;;;2.70;;
35839;SDS011;35514;50.504;30.500;2023-04-19T03:34:37;8.27;;;3.47;;
35839;SDS011;35514;50.504;30.500;2023-04-19T03:37:04;5.78;;;2.50;;
35839;SDS011;35514;50.504;30.500;2023-04-19T03:39:32;6.18;;;2.60;;
35839;SDS011;35514;50.504;30.500;2023-04-19T03:42:01;10.43;;;3.78;;
35839;SDS011;35514;50.504;30.500;2023-04-19T03:44:30;7.97;;;3.08;;
35839;SDS011;35514;50.504;30.500;2023-04-19T03:46:58;5.22;;;2.78;;
35839;SDS011;35514;50.504;30.500;2023-04-19T03:49:25;11.70;;;2.85;;
35839;SDS011;35514;50.504;30.500;2023-04-19T03:51:53;12.85;;;2.60;;
35839;SDS011;35514;50.504;30.500;2023-04-19T03:54:20;6.75;;;3.05;;
35839;SDS011;35514;50.504;30.500;2023-04-19T03:56:48;10.43;;;3.60;;
35839;SDS011;35514;50.504;30.500;2023-04-19T03:59:17;6.55;;;2.70;;
35839;SDS011;35514;50.504;30.500;2023-04-19T04:01:44;5.50;;;2.42;;
35839;SDS011;35514;50.504;30.500;2023-04-19T04:04:12;6.68;;;2.78;;
35839;SDS011;35514;50.504;30.500;2023-04-19T04:06:41;5.18;;;2.42;;
35839;SDS011;35514;50.504;30.500;2023-04-19T04:09:08;4.65;;;2.83;;
35839;SDS011;35514;50.504;30.500;2023-04-19T04:11:36;8.40;;;2.72;;
35839;SDS011;35514;50.504;30.500;2023-04-19T04:14:05;5.75;;;2.33;;
35839;SDS011;35514;50.504;30.500;2023-04-19T04:16:34;8.40;;;3.20;;
35839;SDS011;35514;50.504;30.500;2023-04-19T04:19:02;5.82;;;2.55;;
35839;SDS011;35514;50.504;30.500;2023-04-19T04:21:30;6.53;;;3.47;;
35839;SDS011;35514;50.504;30.500;2023-04-19T04:23:57;7.03;;;3.20;;
35839;SDS011;35514;50.504;30.500;2023-04-19T04:26:27;8.57;;;3.38;;
35839;SDS011;35514;50.504;30.500;2023-04-19T04:28:56;5.75;;;3.10;;
35839;SDS011;35514;50.504;30.500;2023-04-19T04:31:23;5.70;;;2.55;;
35839;SDS011;35514;50.504;30.500;2023-04-19T04:33:52;9.88;;;2.83;;
35839;SDS011;35514;50.504;30.500;2023-04-19T04:36:20;6.97;;;3.45;;
35839;SDS011;35514;50.504;30.500;2023-04-19T04:38:49;5.88;;;2.50;;
35839;SDS011;35514;50.504;30.500;2023-04-19T04:41:17;6.18;;;2.67;;
35839;SDS011;35514;50.504;30.500;2023-04-19T04:43:48;9.82;;;3.15;;
35839;SDS011;35514;50.504;30.500;2023-04-19T04:46:30;12.43;;;2.78;;
35839;SDS011;35514;50.504;30.500;2023-04-19T04:48:59;8.60;;;2.97;;
35839;SDS011;35514;50.504;30.500;2023-04-19T04:51:27;6.10;;;2.85;;
35839;SDS011;35514;50.504;30.500;2023-04-19T04:53:54;5.82;;;2.92;;
35839;SDS011;35514;50.504;30.500;2023-04-19T04:56:22;8.30;;;2.85;;
35839;SDS011;35514;50.504;30.500;2023-04-19T04:58:51;11.25;;;2.90;;
35839;SDS011;35514;50.504;30.500;2023-04-19T05:01:19;10.63;;;2.50;;
35839;SDS011;35514;50.504;30.500;2023-04-19T05:03:47;5.55;;;2.17;;
35839;SDS011;35514;50.504;30.500;2023-04-19T05:06:17;11.07;;;4.43;;
35839;SDS011;35514;50.504;30.500;2023-04-19T05:08:45;8.82;;;2.35;;
35839;SDS011;35514;50.504;30.500;2023-04-19T05:11:16;5.35;;;2.47;;
35839;SDS011;35514;50.504;30.500;2023-04-19T05:14:01;6.30;;;2.08;;
35839;SDS011;35514;50.504;30.500;2023-04-19T05:16:29;9.38;;;2.42;;
35839;SDS011;35514;50.504;30.500;2023-04-19T05:19:49;8.63;;;3.00;;
35839;SDS011;35514;50.504;30.500;2023-04-19T05:22:21;8.95;;;2.58;;
35839;SDS011;35514;50.504;30.500;2023-04-19T05:24:49;8.10;;;2.30;;
35839;SDS011;35514;50.504;30.500;2023-04-19T05:27:16;7.07;;;2.88;;
35839;SDS011;35514;50.504;30.500;2023-04-19T05:29:44;9.20;;;2.97;;
35839;SDS011;35514;50.504;30.500;2023-04-19T05:32:12;4.68;;;2.20;;
35839;SDS011;35514;50.504;30.500;2023-04-19T05:34:39;6.13;;;2.60;;
35839;SDS011;35514;50.504;30.500;2023-04-19T05:37:07;7.05;;;2.25;;
35839;SDS011;35514;50.504;30.500;2023-04-19T05:39:38;11.88;;;2.58;;
35839;SDS011;35514;50.504;30.500;2023-04-19T05:42:09;6.43;;;2.55;;
35839;SDS011;35514;50.504;30.500;2023-04-19T05:44:39;10.77;;;2.50;;
35839;SDS011;35514;50.504;30.500;2023-04-19T05:47:07;8.00;;;3.28;;
35839;SDS011;35514;50.504;30.500;2023-04-19T05:49:35;5.80;;;2.70;;
35839;SDS011;35514;50.504;30.500;2023-04-19T05:52:03;9.25;;;2.47;;
35839;SDS011;35514;50.504;30.500;2023-04-19T05:54:33;4.55;;;2.50;;
35839;SDS011;35514;50.504;30.500;2023-04-19T05:57:03;12.10;;;3.20;;
35839;SDS011;35514;50.504;30.500;2023-04-19T05:59:33;7.57;;;2.75;;
35839;SDS011;35514;50.504;30.500;2023-04-19T06:02:00;5.60;;;2.78;;
35839;SDS011;35514;50.504;30.500;2023-04-19T06:04:28;8.85;;;2.63;;
35839;SDS011;35514;50.504;30.500;2023-04-19T06:06:57;10.15;;;2.28;;
35839;SDS011;35514;50.504;30.500;2023-04-19T06:09:25;9.20;;;2.28;;
35839;SDS011;35514;50.504;30.500;2023-04-19T06:11:52;7.60;;;2.58;;
35839;SDS011;35514;50.504;30.500;2023-04-19T06:14:25;10.98;;;3.08;;
35839;SDS011;35514;50.504;30.500;2023-04-19T06:16:53;5.25;;;2.03;;
35839;SDS011;35514;50.504;30.500;2023-04-19T06:19:21;7.10;;;2.80;;
35839;SDS011;35514;50.504;30.500;2023-04-19T06:21:48;14.18;;;2.83;;
35839;SDS011;35514;50.504;30.500;2023-04-19T06:24:21;16.08;;;3.08;;
35839;SDS011;35514;50.504;30.500;2023-04-19T06:26:49;7.50;;;2.15;;
35839;SDS011;35514;50.504;30.500;2023-04-19T06:29:16;8.77;;;2.33;;
35839;SDS011;35514;50.504;30.500;2023-04-19T06:31:46;6.10;;;3.08;;
35839;SDS011;35514;50.504;30.500;2023-04-19T06:34:14;5.25;;;2.10;;
35839;SDS011;35514;50.504;30.500;2023-04-19T06:36:43;4.72;;;2.22;;
35839;SDS011;35514;50.504;30.500;2023-04-19T06:39:10;7.78;;;2.30;;
35839;SDS011;35514;50.504;30.500;2023-04-19T06:41:40;10.15;;;2.05;;
35839;SDS011;35514;50.504;30.500;2023-04-19T06:44:09;8.38;;;2.97;;
35839;SDS011;35514;50.504;30.500;2023-04-19T06:46:38;11.13;;;3.25;;
35839;SDS011;35514;50.504;30.500;2023-04-19T06:49:08;8.52;;;2.08;;
35839;SDS011;35514;50.504;30.500;2023-04-19T06:51:37;4.63;;;2.20;;
35839;SDS011;35514;50.504;30.500;2023-04-19T06:54:05;9.57;;;2.65;;
35839;SDS011;35514;50.504;30.500;2023-04-19T06:56:42;8.07;;;2.20;;
35839;SDS011;35514;50.504;30.500;2023-04-19T06:59:12;9.45;;;2.83;;
35839;SDS011;35514;50.504;30.500;2023-04-19T07:01:39;11.48;;;2.78;;
35839;SDS011;35514;50.504;30.500;2023-04-19T07:04:08;14.70;;;4.18;;
35839;SDS011;35514;50.504;30.500;2023-04-19T07:06:37;7.90;;;2.75;;
35839;SDS011;35514;50.504;30.500;2023-04-19T07:09:05;14.63;;;2.55;;
35839;SDS011;35514;50.504;30.500;2023-04-19T07:11:33;7.07;;;2.40;;
35839;SDS011;35514;50.504;30.500;2023-04-19T07:14:01;5.35;;;1.75;;
35839;SDS011;35514;50.504;30.500;2023-04-19T07:16:29;5.68;;;2.10;;
35839;SDS011;35514;50.504;30.500;2023-04-19T07:18:57;6.60;;;2.80;;
35839;SDS011;35514;50.504;30.500;2023-04-19T07:21:26;11.52;;;2.08;;
35839;SDS011;35514;50.504;30.500;2023-04-19T07:23:58;5.43;;;2.00;;
35839;SDS011;35514;50.504;30.500;2023-04-19T07:26:26;8.50;;;2.22;;
35839;SDS011;35514;50.504;30.500;2023-04-19T07:28:56;15.52;;;2.90;;
35839;SDS011;35514;50.504;30.500;2023-04-19T07:31:23;5.30;;;2.05;;
35839;SDS011;35514;50.504;30.500;2023-04-19T07:33:53;7.22;;;2.58;;
35839;SDS011;35514;50.504;30.500;2023-04-19T07:36:21;7.60;;;2.38;;
35839;SDS011;35514;50.504;30.500;2023-04-19T07:38:50;10.82;;;1.92;;
35839;SDS011;35514;50.504;30.500;2023-04-19T07:41:18;12.38;;;3.60;;
35839;SDS011;35514;50.504;30.500;2023-04-19T07:43:48;8.15;;;2.40;;
35839;SDS011;35514;50.504;30.500;2023-04-19T07:46:16;10.25;;;2.50;;
35839;SDS011;35514;50.504;30.500;2023-04-19T07:48:44;6.10;;;2.33;;
35839;SDS011;35514;50.504;30.500;2023-04-19T07:51:12;14.30;;;2.05;;
35839;SDS011;35514;50.504;30.500;2023-04-19T07:53:40;8.75;;;2.20;;
35839;SDS011;35514;50.504;30.500;2023-04-19T07:56:10;8.57;;;2.08;;
35839;SDS011;35514;50.504;30.500;2023-04-19T07:58:38;10.75;;;2.08;;
35839;SDS011;35514;50.504;30.500;2023-04-19T08:01:08;13.80;;;3.30;;
35839;SDS011;35514;50.504;30.500;2023-04-19T08:03:40;12.75;;;1.90;;
35839;SDS011;35514;50.504;30.500;2023-04-19T08:06:08;9.20;;;2.72;;
35839;SDS011;35514;50.504;30.500;2023-04-19T08:08:38;5.65;;;2.20;;
35839;SDS011;35514;50.504;30.500;2023-04-19T08:11:06;6.25;;;2.75;;
35839;SDS011;35514;50.504;30.500;2023-04-19T08:13:37;11.18;;;1.83;;
35839;SDS011;35514;50.504;30.500;2023-04-19T08:16:05;13.15;;;1.92;;
35839;SDS011;35514;50.504;30.500;2023-04-19T08:18:36;5.25;;;1.90;;
35839;SDS011;35514;50.504;30.500;2023-04-19T08:21:04;8.20;;;2.00;;
35839;SDS011;35514;50.504;30.500;2023-04-19T08:23:31;7.07;;;1.90;;
35839;SDS011;35514;50.504;30.500;2023-04-19T08:26:13;15.15;;;1.70;;
35839;SDS011;35514;50.504;30.500;2023-04-19T08:28:43;12.00;;;1.63;;
35839;SDS011;35514;50.504;30.500;2023-04-19T08:31:10;7.80;;;1.83;;
35839;SDS011;35514;50.504;30.500;2023-04-19T08:33:38;8.80;;;1.70;;
35839;SDS011;35514;50.504;30.500;2023-04-19T08:36:06;22.58;;;3.08;;
35839;SDS011;35514;50.504;30.500;2023-04-19T08:38:34;10.50;;;1.80;;
35839;SDS011;35514;50.504;30.500;2023-04-19T08:41:04;6.97;;;1.70;;
35839;SDS011;35514;50.504;30.500;2023-04-19T08:43:33;10.68;;;1.90;;
35839;SDS011;35514;50.504;30.500;2023-04-19T08:46:27;6.03;;;1.60;;
35839;SDS011;35514;50.504;30.500;2023-04-19T08:48:55;7.15;;;2.30;;
35839;SDS011;35514;50.504;30.500;2023-04-19T08:51:24;17.17;;;2.25;;
35839;SDS011;35514;50.504;30.500;2023-04-19T08:53:53;8.93;;;1.83;;
35839;SDS011;35514;50.504;30.500;2023-04-19T08:56:25;15.60;;;1.80;;
35839;SDS011;35514;50.504;30.500;2023-04-19T08:59:01;11.98;;;1.95;;
35839;SDS011;35514;50.504;30.500;2023-04-19T09:01:44;10.68;;;2.05;;
35839;SDS011;35514;50.504;30.500;2023-04-19T09:04:13;13.13;;;1.98;;
35839;SDS011;35514;50.504;30.500;2023-04-19T09:07:01;9.07;;;1.80;;
35839;SDS011;35514;50.504;30.500;2023-04-19T09:09:29;15.63;;;1.83;;
35839;SDS011;35514;50.504;30.500;2023-04-19T09:12:00;12.77;;;1.98;;
35839;SDS011;35514;50.504;30.500;2023-04-19T09:14:27;13.57;;;2.00;;
35839;SDS011;35514;50.504;30.500;2023-04-19T09:19:46;18.95;;;2.85;;
35839;SDS011;35514;50.504;30.500;2023-04-19T09:22:14;13.88;;;1.77;;
35839;SDS011;35514;50.504;30.500;2023-04-19T09:25:07;25.75;;;1.77;;
35839;SDS011;35514;50.504;30.500;2023-04-19T09:27:38;17.98;;;1.98;;
35839;SDS011;35514;50.504;30.500;2023-04-19T09:30:06;5.65;;;2.03;;
35839;SDS011;35514;50.504;30.500;2023-04-19T09:32:57;10.30;;;1.88;;
35839;SDS011;35514;50.504;30.500;2023-04-19T09:35:31;13.93;;;2.38;;
35839;SDS011;35514;50.504;30.500;2023-04-19T09:38:06;9.90;;;1.65;;
35839;SDS011;35514;50.504;30.500;2023-04-19T09:40:34;14.52;;;1.80;;
35839;SDS011;35514;50.504;30.500;2023-04-19T09:43:04;25.58;;;2.10;;
35839;SDS011;35514;50.504;30.500;2023-04-19T09:45:51;9.98;;;1.48;;
35839;SDS011;35514;50.504;30.500;2023-04-19T09:48:44;14.90;;;1.75;;
35839;SDS011;35514;50.504;30.500;2023-04-19T09:51:16;26.80;;;1.98;;
35839;SDS011;35514;50.504;30.500;2023-04-19T09:53:44;12.32;;;2.20;;
35839;SDS011;35514;50.504;30.500;2023-04-19T09:56:11;14.23;;;1.55;;
35839;SDS011;35514;50.504;30.500;2023-04-19T09:58:41;18.15;;;2.40;;
35839;SDS011;35514;50.504;30.500;2023-04-19T10:01:21;19.77;;;1.98;;
35839;SDS011;35514;50.504;30.500;2023-04-19T10:03:49;27.48;;;3.42;;
35839;SDS011;35514;50.504;30.500;2023-04-19T10:06:20;18.25;;;2.63;;
35839;SDS011;35514;50.504;30.500;2023-04-19T10:11:20;25.23;;;4.43;;
35839;SDS011;35514;50.504;30.500;2023-04-19T10:13:51;14.10;;;2.90;;
35839;SDS011;35514;50.504;30.500;2023-04-19T10:16:22;30.45;;;2.40;;
35839;SDS011;35514;50.504;30.500;2023-04-19T10:18:50;22.05;;;1.92;;
35839;SDS011;35514;50.504;30.500;2023-04-19T10:21:20;24.10;;;2.08;;
35839;SDS011;35514;50.504;30.500;2023-04-19T10:23:48;19.13;;;2.20;;
35839;SDS011;35514;50.504;30.500;2023-04-19T10:26:16;17.10;;;1.95;;
35839;SDS011;35514;50.504;30.500;2023-04-19T10:28:43;21.55;;;2.88;;
35839;SDS011;35514;50.504;30.500;2023-04-19T10:31:11;20.83;;;3.30;;
35839;SDS011;35514;50.504;30.500;2023-04-19T10:33:39;17.05;;;3.28;;
35839;SDS011;35514;50.504;30.500;2023-04-19T10:36:07;12.00;;;2.05;;
35839;SDS011;35514;50.504;30.500;2023-04-19T10:39:01;15.70;;;1.70;;
35839;SDS011;35514;50.504;30.500;2023-04-19T10:41:56;14.65;;;3.35;;
35839;SDS011;35514;50.504;30.500;2023-04-19T10:44:24;27.67;;;2.45;;
35839;SDS011;35514;50.504;30.500;2023-04-19T10:46:52;36.25;;;3.40;;
35839;SDS011;35514;50.504;30.500;2023-04-19T10:49:24;29.08;;;3.17;;
35839;SDS011;35514;50.504;30.500;2023-04-19T10:51:52;27.23;;;2.90;;
35839;SDS011;35514;50.504;30.500;2023-04-19T10:54:29;21.05;;;2.53;;
35839;SDS011;35514;50.504;30.500;2023-04-19T10:56:58;20.70;;;2.70;;
35839;SDS011;35514;50.504;30.500;2023-04-19T10:59:31;27.23;;;2.17;;
35839;SDS011;35514;50.504;30.500;2023-04-19T11:01:59;19.40;;;2.00;;
35839;SDS011;35514;50.504;30.500;2023-04-19T11:07:14;9.85;;;1.67;;
35839;SDS011;35514;50.504;30.500;2023-04-19T11:09:45;20.10;;;2.35;;
35839;SDS011;35514;50.504;30.500;2023-04-19T11:12:13;14.88;;;2.60;;
35839;SDS011;35514;50.504;30.500;2023-04-19T11:14:42;11.75;;;1.75;;
35839;SDS011;35514;50.504;30.500;2023-04-19T11:17:13;22.80;;;2.25;;
35839;SDS011;35514;50.504;30.500;2023-04-19T11:19:41;27.33;;;2.42;;
35839;SDS011;35514;50.504;30.500;2023-04-19T11:22:09;20.48;;;1.92;;
35839;SDS011;35514;50.504;30.500;2023-04-19T11:24:45;28.80;;;2.70;;
35839;SDS011;35514;50.504;30.500;2023-04-19T11:27:13;26.10;;;3.20;;
35839;SDS011;35514;50.504;30.500;2023-04-19T11:29:40;29.60;;;2.63;;
35839;SDS011;35514;50.504;30.500;2023-04-19T11:32:08;27.55;;;2.45;;
35839;SDS011;35514;50.504;30.500;2023-04-19T11:34:39;24.67;;;2.40;;
35839;SDS011;35514;50.504;30.500;2023-04-19T11:37:10;25.23;;;2.78;;
35839;SDS011;35514;50.504;30.500;2023-04-19T11:39:46;30.27;;;2.50;;
35839;SDS011;35514;50.504;30.500;2023-04-19T11:42:17;35.45;;;2.78;;
35839;SDS011;35514;50.504;30.500;2023-04-19T11:44:49;34.53;;;2.78;;
35839;SDS011;35514;50.504;30.500;2023-04-19T11:47:17;28.33;;;2.83;;
35839;SDS011;35514;50.504;30.500;2023-04-19T11:49:45;24.10;;;4.13;;
35839;SDS011;35514;50.504;30.500;2023-04-19T11:52:20;26.27;;;3.35;;
35839;SDS011;35514;50.504;30.500;2023-04-19T11:54:51;26.60;;;2.78;;
35839;SDS011;35514;50.504;30.500;2023-04-19T11:57:28;25.23;;;2.80;;
35839;SDS011;35514;50.504;30.500;2023-04-19T12:00:01;35.55;;;4.80;;
35839;SDS011;35514;50.504;30.500;2023-04-19T12:02:35;18.83;;;2.92;;
35839;SDS011;35514;50.504;30.500;2023-04-19T12:05:09;18.02;;;2.45;;
35839;SDS011;35514;50.504;30.500;2023-04-19T12:10:21;24.73;;;3.97;;
35839;SDS011;35514;50.504;30.500;2023-04-19T12:12:50;25.80;;;4.03;;
35839;SDS011;35514;50.504;30.500;2023-04-19T12:15:18;26.35;;;3.05;;
35839;SDS011;35514;50.504;30.500;2023-04-19T12:17:57;37.65;;;4.20;;
35839;SDS011;35514;50.504;30.500;2023-04-19T12:20:28;21.58;;;2.83;;
35839;SDS011;35514;50.504;30.500;2023-04-19T12:23:06;31.42;;;4.50;;
35839;SDS011;35514;50.504;30.500;2023-04-19T12:26:05;32.75;;;3.45;;
35839;SDS011;35514;50.504;30.500;2023-04-19T12:28:33;24.75;;;3.03;;
35839;SDS011;35514;50.504;30.500;2023-04-19T12:31:05;30.23;;;3.08;;
35839;SDS011;35514;50.504;30.500;2023-04-19T12:33:33;17.25;;;2.35;;
35839;SDS011;35514;50.504;30.500;2023-04-19T12:36:00;17.83;;;2.75;;
35839;SDS011;35514;50.504;30.500;2023-04-19T12:38:33;23.25;;;2.90;;
35839;SDS011;35514;50.504;30.500;2023-04-19T12:41:07;24.05;;;3.20;;
35839;SDS011;35514;50.504;30.500;2023-04-19T12:43:35;29.90;;;2.78;;
35839;SDS011;35514;50.504;30.500;2023-04-19T12:46:03;33.63;;;4.63;;
35839;SDS011;35514;50.504;30.500;2023-04-19T12:48:31;29.00;;;3.78;;
35839;SDS011;35514;50.504;30.500;2023-04-19T12:50:59;22.80;;;3.00;;
35839;SDS011;35514;50.504;30.500;2023-04-19T12:53:27;32.03;;;4.50;;
35839;SDS011;35514;50.504;30.500;2023-04-19T12:55:54;28.08;;;4.45;;
35839;SDS011;35514;50.504;30.500;2023-04-19T12:58:23;36.05;;;3.92;;
35839;SDS011;35514;50.504;30.500;2023-04-19T13:00:51;19.02;;;2.55;;
35839;SDS011;35514;50.504;30.500;2023-04-19T13:03:19;29.85;;;3.67;;
35839;SDS011;35514;50.504;30.500;2023-04-19T13:05:47;36.15;;;3.47;;
35839;SDS011;35514;50.504;30.500;2023-04-19T13:08:15;33.83;;;4.40;;
35839;SDS011;35514;50.504;30.500;2023-04-19T13:10:54;30.15;;;4.10;;
35839;SDS011;35514;50.504;30.500;2023-04-19T13:13:21;32.60;;;4.53;;
35839;SDS011;35514;50.504;30.500;2023-04-19T13:15:53;40.17;;;4.25;;
35839;SDS011;35514;50.504;30.500;2023-04-19T13:18:21;31.60;;;4.10;;
35839;SDS011;35514;50.504;30.500;2023-04-19T13:20:49;25.42;;;3.65;;
35839;SDS011;35514;50.504;30.500;2023-04-19T13:23:19;35.53;;;3.70;;
35839;SDS011;35514;50.504;30.500;2023-04-19T13:25:46;26.17;;;3.95;;
35839;SDS011;35514;50.504;30.500;2023-04-19T13:28:39;27.15;;;5.40;;
35839;SDS011;35514;50.504;30.500;2023-04-19T13:31:13;36.80;;;5.68;;
35839;SDS011;35514;50.504;30.500;2023-04-19T13:33:43;19.67;;;3.47;;
35839;SDS011;35514;50.504;30.500;2023-04-19T13:39:07;18.80;;;3.50;;
35839;SDS011;35514;50.504;30.500;2023-04-19T13:41:40;38.30;;;3.85;;
35839;SDS011;35514;50.504;30.500;2023-04-19T13:44:10;26.60;;;3.50;;
35839;SDS011;35514;50.504;30.500;2023-04-19T13:46:38;57.75;;;5.72;;
35839;SDS011;35514;50.504;30.500;2023-04-19T13:49:08;29.60;;;3.28;;
35839;SDS011;35514;50.504;30.500;2023-04-19T13:51:35;27.92;;;3.83;;
35839;SDS011;35514;50.504;30.500;2023-04-19T13:54:15;25.75;;;3.80;;
35839;SDS011;35514;50.504;30.500;2023-04-19T13:56:45;44.67;;;4.82;;
35839;SDS011;35514;50.504;30.500;2023-04-19T13:59:16;39.53;;;3.92;;
35839;SDS011;35514;50.504;30.500;2023-04-19T14:01:45;33.17;;;5.05;;
35839;SDS011;35514;50.504;30.500;2023-04-19T14:04:13;35.30;;;6.18;;
35839;SDS011;35514;50.504;30.500;2023-04-19T14:06:41;42.53;;;5.18;;
35839;SDS011;35514;50.504;30.500;2023-04-19T14:09:09;20.48;;;3.10;;
35839;SDS011;35514;50.504;30.500;2023-04-19T14:11:36;19.30;;;3.05;;
35839;SDS011;35514;50.504;30.500;2023-04-19T14:14:04;25.83;;;3.75;;
35839;SDS011;35514;50.504;30.500;2023-04-19T14:16:32;25.40;;;3.83;;
35839;SDS011;35514;50.504;30.500;2023-04-19T14:19:01;28.83;;;4.10;;
35839;SDS011;35514;50.504;30.500;2023-04-19T14:21:28;33.80;;;3.40;;
35839;SDS011;35514;50.504;30.500;2023-04-19T14:23:56;29.25;;;4.22;;
35839;SDS011;35514;50.504;30.500;2023-04-19T14:26:24;28.08;;;3.78;;
35839;SDS011;35514;50.504;30.500;2023-04-19T14:28:53;18.58;;;3.13;;
35839;SDS011;35514;50.504;30.500;2023-04-19T14:31:20;24.30;;;4.10;;
35839;SDS011;35514;50.504;30.500;2023-04-19T14:33:48;18.17;;;2.72;;
35839;SDS011;35514;50.504;30.500;2023-04-19T14:36:17;26.85;;;3.47;;
35839;SDS011;35514;50.504;30.500;2023-04-19T14:38:47;29.10;;;3.38;;
35839;SDS011;35514;50.504;30.500;2023-04-19T14:41:17;20.60;;;3.03;;
35839;SDS011;35514;50.504;30.500;2023-04-19T14:43:48;20.02;;;2.85;;
35839;SDS011;35514;50.504;30.500;2023-04-19T14:46:16;21.90;;;3.08;;
35839;SDS011;35514;50.504;30.500;2023-04-19T14:48:43;23.85;;;2.97;;
35839;SDS011;35514;50.504;30.500;2023-04-19T14:51:11;44.90;;;5.28;;
35839;SDS011;35514;50.504;30.500;2023-04-19T14:53:41;26.48;;;2.60;;
35839;SDS011;35514;50.504;30.500;2023-04-19T14:56:11;21.05;;;2.88;;
35839;SDS011;35514;50.504;30.500;2023-04-19T14:58:39;17.13;;;3.35;;